sensor_id;sensor_type;location;lat;lon;timestamp;pressure;altitude;pressure_sealevel;temperature;humidity
65800;BME280;52544;48.116;11.660;2022-09-03T00:00:12;95393.66;;;14.00;78.98
65800;BME280;52544;48.116;11.660;2022-09-03T00:02:46;95388.84;;;14.04;78.71
65800;BME280;52544;48.116;11.660;2022-09-03T00:05:31;95391.22;;;14.07;78.61
65800;BME280;52544;48.116;11.660;2022-09-03T00:08:22;95397.06;;;14.10;78.75
65800;BME280;52544;48.116;11.660;2022-09-03T00:11:02;95403.56;;;14.16;78.51
65800;BME280;52544;48.116;11.660;2022-09-03T00:13:37;95390.09;;;14.17;78.94
65800;BME280;52544;48.116;11.660;2022-09-03T00:16:07;95395.41;;;14.17;78.53
65800;BME280;52544;48.116;11.660;2022-09-03T00:18:37;95404.00;;;14.03;78.88
65800;BME280;52544;48.116;11.660;2022-09-03T00:21:12;95392.59;;;13.93;79.78
65800;BME280;52544;48.116;11.660;2022-09-03T00:23:41;95403.25;;;13.93;80.33
65800;BME280;52544;48.116;11.660;2022-09-03T00:28:56;95402.81;;;14.06;80.22
65800;BME280;52544;48.116;11.660;2022-09-03T00:31:35;95394.47;;;14.00;80.27
65800;BME280;52544;48.116;11.660;2022-09-03T00:36:56;95394.53;;;14.09;80.50
65800;BME280;52544;48.116;11.660;2022-09-03T00:39:24;95396.72;;;14.13;80.05
65800;BME280;52544;48.116;11.660;2022-09-03T00:42:02;95389.56;;;14.14;80.11
65800;BME280;52544;48.116;11.660;2022-09-03T00:55:32;95383.81;;;14.26;77.61
65800;BME280;52544;48.116;11.660;2022-09-03T01:00:25;95392.50;;;14.03;79.47
65800;BME280;52544;48.116;11.660;2022-09-03T01:05:53;95394.78;;;13.71;80.59
65800;BME280;52544;48.116;11.660;2022-09-03T01:08:47;95401.72;;;13.64;81.70
65800;BME280;52544;48.116;11.660;2022-09-03T01:15:14;95390.38;;;13.62;82.01
65800;BME280;52544;48.116;11.660;2022-09-03T01:18:03;95390.28;;;13.72;82.05
65800;BME280;52544;48.116;11.660;2022-09-03T01:20:37;95389.50;;;13.80;81.70
65800;BME280;52544;48.116;11.660;2022-09-03T01:23:22;95392.91;;;13.64;81.80
65800;BME280;52544;48.116;11.660;2022-09-03T01:26:15;95400.88;;;13.46;83.16
65800;BME280;52544;48.116;11.660;2022-09-03T01:29:00;95396.34;;;13.38;83.55
65800;BME280;52544;48.116;11.660;2022-09-03T01:31:54;95405.75;;;13.33;83.90
65800;BME280;52544;48.116;11.660;2022-09-03T01:34:48;95391.03;;;13.56;82.53
65800;BME280;52544;48.116;11.660;2022-09-03T01:50:52;95395.56;;;13.46;80.44
65800;BME280;52544;48.116;11.660;2022-09-03T01:54:02;95389.44;;;13.71;79.57
65800;BME280;52544;48.116;11.660;2022-09-03T01:56:52;95391.38;;;13.61;79.74
65800;BME280;52544;48.116;11.660;2022-09-03T01:59:29;95384.94;;;13.64;79.38
65800;BME280;52544;48.116;11.660;2022-09-03T02:02:02;95383.72;;;13.58;80.11
65800;BME280;52544;48.116;11.660;2022-09-03T02:04:30;95379.63;;;13.64;79.52
65800;BME280;52544;48.116;11.660;2022-09-03T02:06:58;95385.06;;;13.62;79.62
65800;BME280;52544;48.116;11.660;2022-09-03T02:09:25;95377.25;;;13.61;79.39
65800;BME280;52544;48.116;11.660;2022-09-03T02:12:07;95366.09;;;13.57;79.46
65800;BME280;52544;48.116;11.660;2022-09-03T02:14:34;95363.78;;;13.62;79.92
65800;BME280;52544;48.116;11.660;2022-09-03T02:17:03;95361.63;;;13.40;80.09
65800;BME280;52544;48.116;11.660;2022-09-03T02:19:30;95369.84;;;13.29;81.58
65800;BME280;52544;48.116;11.660;2022-09-03T02:21:56;95364.16;;;13.23;81.96
65800;BME280;52544;48.116;11.660;2022-09-03T02:24:23;95370.06;;;13.17;82.37
65800;BME280;52544;48.116;11.660;2022-09-03T02:26:49;95377.94;;;13.09;82.49
65800;BME280;52544;48.116;11.660;2022-09-03T02:29:15;95379.38;;;13.04;83.02
65800;BME280;52544;48.116;11.660;2022-09-03T02:31:42;95385.75;;;12.93;82.94
65800;BME280;52544;48.116;11.660;2022-09-03T02:34:08;95385.03;;;12.91;84.15
65800;BME280;52544;48.116;11.660;2022-09-03T02:36:40;95380.63;;;12.82;84.79
65800;BME280;52544;48.116;11.660;2022-09-03T02:39:06;95380.41;;;12.75;85.03
65800;BME280;52544;48.116;11.660;2022-09-03T02:41:32;95387.13;;;12.69;85.41
65800;BME280;52544;48.116;11.660;2022-09-03T02:44:08;95382.81;;;12.68;85.57
65800;BME280;52544;48.116;11.660;2022-09-03T02:46:45;95390.50;;;12.71;86.23
65800;BME280;52544;48.116;11.660;2022-09-03T02:49:12;95378.78;;;12.92;85.52
65800;BME280;52544;48.116;11.660;2022-09-03T02:51:40;95377.31;;;12.97;84.53
65800;BME280;52544;48.116;11.660;2022-09-03T02:54:06;95380.34;;;12.85;85.21
65800;BME280;52544;48.116;11.660;2022-09-03T02:56:32;95381.53;;;12.72;85.60
65800;BME280;52544;48.116;11.660;2022-09-03T02:58:58;95383.81;;;12.67;85.69
65800;BME280;52544;48.116;11.660;2022-09-03T03:01:24;95382.34;;;12.55;86.31
65800;BME280;52544;48.116;11.660;2022-09-03T03:03:50;95386.09;;;12.52;87.32
65800;BME280;52544;48.116;11.660;2022-09-03T03:06:16;95387.00;;;12.43;87.61
65800;BME280;52544;48.116;11.660;2022-09-03T03:08:45;95382.53;;;12.44;87.83
65800;BME280;52544;48.116;11.660;2022-09-03T03:11:11;95385.50;;;12.41;88.22
65800;BME280;52544;48.116;11.660;2022-09-03T03:13:37;95387.19;;;12.60;87.28
65800;BME280;52544;48.116;11.660;2022-09-03T03:16:04;95382.53;;;12.71;86.35
65800;BME280;52544;48.116;11.660;2022-09-03T03:18:32;95382.28;;;12.83;85.37
65800;BME280;52544;48.116;11.660;2022-09-03T03:21:06;95384.94;;;12.83;84.79
65800;BME280;52544;48.116;11.660;2022-09-03T03:23:33;95383.84;;;12.85;85.50
65800;BME280;52544;48.116;11.660;2022-09-03T03:26:03;95381.38;;;12.74;85.77
65800;BME280;52544;48.116;11.660;2022-09-03T03:28:29;95382.09;;;12.76;85.65
65800;BME280;52544;48.116;11.660;2022-09-03T03:31:15;95376.94;;;12.74;85.40
65800;BME280;52544;48.116;11.660;2022-09-03T03:33:41;95376.59;;;12.77;85.30
65800;BME280;52544;48.116;11.660;2022-09-03T03:36:12;95374.41;;;12.73;84.77
65800;BME280;52544;48.116;11.660;2022-09-03T03:38:38;95386.28;;;12.51;86.64
65800;BME280;52544;48.116;11.660;2022-09-03T03:41:22;95388.59;;;12.36;87.25
65800;BME280;52544;48.116;11.660;2022-09-03T03:43:52;95396.56;;;12.26;88.09
65800;BME280;52544;48.116;11.660;2022-09-03T03:46:19;95395.19;;;12.22;88.80
65800;BME280;52544;48.116;11.660;2022-09-03T03:48:47;95407.22;;;12.17;88.76
65800;BME280;52544;48.116;11.660;2022-09-03T03:51:12;95405.00;;;12.12;89.13
65800;BME280;52544;48.116;11.660;2022-09-03T03:53:38;95401.38;;;12.13;88.89
65800;BME280;52544;48.116;11.660;2022-09-03T03:56:06;95406.91;;;12.30;88.24
65800;BME280;52544;48.116;11.660;2022-09-03T03:58:32;95408.31;;;12.24;88.11
65800;BME280;52544;48.116;11.660;2022-09-03T04:01:06;95398.09;;;12.29;88.37
65800;BME280;52544;48.116;11.660;2022-09-03T04:03:33;95392.28;;;12.53;87.51
65800;BME280;52544;48.116;11.660;2022-09-03T04:05:59;95388.25;;;12.49;86.67
65800;BME280;52544;48.116;11.660;2022-09-03T04:08:25;95388.44;;;12.38;87.01
65800;BME280;52544;48.116;11.660;2022-09-03T04:10:51;95381.94;;;12.50;86.93
65800;BME280;52544;48.116;11.660;2022-09-03T04:13:16;95376.75;;;12.58;85.84
65800;BME280;52544;48.116;11.660;2022-09-03T04:15:42;95381.94;;;12.50;85.99
65800;BME280;52544;48.116;11.660;2022-09-03T04:18:08;95387.22;;;12.32;87.06
65800;BME280;52544;48.116;11.660;2022-09-03T04:20:36;95383.00;;;12.57;85.97
65800;BME280;52544;48.116;11.660;2022-09-03T04:23:03;95395.72;;;12.63;84.95
65800;BME280;52544;48.116;11.660;2022-09-03T04:25:29;95390.84;;;12.59;84.97
65800;BME280;52544;48.116;11.660;2022-09-03T04:27:54;95389.41;;;12.64;84.93
65800;BME280;52544;48.116;11.660;2022-09-03T04:30:20;95393.09;;;12.54;85.65
65800;BME280;52544;48.116;11.660;2022-09-03T04:32:48;95395.31;;;12.58;86.14
65800;BME280;52544;48.116;11.660;2022-09-03T04:35:17;95390.09;;;12.66;85.60
65800;BME280;52544;48.116;11.660;2022-09-03T04:37:43;95394.44;;;12.67;85.10
65800;BME280;52544;48.116;11.660;2022-09-03T04:40:08;95395.91;;;12.52;85.72
65800;BME280;52544;48.116;11.660;2022-09-03T04:42:34;95398.88;;;12.49;86.84
65800;BME280;52544;48.116;11.660;2022-09-03T04:44:59;95402.38;;;12.40;87.67
65800;BME280;52544;48.116;11.660;2022-09-03T04:47:25;95404.28;;;12.47;87.80
65800;BME280;52544;48.116;11.660;2022-09-03T04:49:52;95395.25;;;12.68;85.62
65800;BME280;52544;48.116;11.660;2022-09-03T04:52:19;95397.88;;;12.50;86.28
65800;BME280;52544;48.116;11.660;2022-09-03T04:54:45;95405.13;;;12.48;87.48
65800;BME280;52544;48.116;11.660;2022-09-03T04:57:10;95396.38;;;12.65;87.06
65800;BME280;52544;48.116;11.660;2022-09-03T04:59:35;95393.25;;;12.80;87.15
65800;BME280;52544;48.116;11.660;2022-09-03T05:02:01;95400.97;;;12.91;86.95
65800;BME280;52544;48.116;11.660;2022-09-03T05:04:27;95397.38;;;12.92;85.48
65800;BME280;52544;48.116;11.660;2022-09-03T05:06:52;95400.69;;;12.94;84.38
65800;BME280;52544;48.116;11.660;2022-09-03T05:09:18;95413.34;;;12.82;85.73
65800;BME280;52544;48.116;11.660;2022-09-03T05:11:43;95415.53;;;12.87;86.61
65800;BME280;52544;48.116;11.660;2022-09-03T05:14:09;95420.19;;;13.02;85.78
65800;BME280;52544;48.116;11.660;2022-09-03T05:16:37;95415.91;;;13.19;85.46
65800;BME280;52544;48.116;11.660;2022-09-03T05:19:03;95421.84;;;13.31;85.12
65800;BME280;52544;48.116;11.660;2022-09-03T05:21:33;95417.22;;;13.33;83.95
65800;BME280;52544;48.116;11.660;2022-09-03T05:24:00;95417.63;;;13.38;84.00
65800;BME280;52544;48.116;11.660;2022-09-03T05:26:28;95421.47;;;13.44;83.13
65800;BME280;52544;48.116;11.660;2022-09-03T05:28:59;95421.56;;;13.34;83.67
65800;BME280;52544;48.116;11.660;2022-09-03T05:31:27;95422.41;;;13.35;85.86
65800;BME280;52544;48.116;11.660;2022-09-03T05:33:55;95431.19;;;13.35;84.58
65800;BME280;52544;48.116;11.660;2022-09-03T05:36:23;95445.69;;;13.41;84.87
65800;BME280;52544;48.116;11.660;2022-09-03T05:38:50;95448.72;;;13.46;84.40
65800;BME280;52544;48.116;11.660;2022-09-03T05:41:18;95450.44;;;13.47;83.80
65800;BME280;52544;48.116;11.660;2022-09-03T05:43:47;95454.81;;;13.56;82.93
65800;BME280;52544;48.116;11.660;2022-09-03T05:46:15;95473.56;;;13.55;83.04
65800;BME280;52544;48.116;11.660;2022-09-03T05:48:43;95488.09;;;13.60;83.03
65800;BME280;52544;48.116;11.660;2022-09-03T05:51:13;95486.34;;;13.69;82.58
65800;BME280;52544;48.116;11.660;2022-09-03T05:53:41;95483.06;;;13.75;82.81
65800;BME280;52544;48.116;11.660;2022-09-03T05:56:09;95478.34;;;13.87;83.40
65800;BME280;52544;48.116;11.660;2022-09-03T05:58:39;95464.81;;;13.98;82.71
65800;BME280;52544;48.116;11.660;2022-09-03T06:01:15;95458.19;;;14.02;81.22
65800;BME280;52544;48.116;11.660;2022-09-03T06:03:42;95458.25;;;14.10;81.66
65800;BME280;52544;48.116;11.660;2022-09-03T06:06:08;95470.94;;;14.16;80.17
65800;BME280;52544;48.116;11.660;2022-09-03T06:08:34;95474.66;;;14.23;78.95
65800;BME280;52544;48.116;11.660;2022-09-03T06:11:03;95467.03;;;14.29;78.56
65800;BME280;52544;48.116;11.660;2022-09-03T06:13:29;95474.00;;;14.30;78.58
65800;BME280;52544;48.116;11.660;2022-09-03T06:15:56;95474.22;;;14.36;78.69
65800;BME280;52544;48.116;11.660;2022-09-03T06:18:22;95459.13;;;14.45;78.89
65800;BME280;52544;48.116;11.660;2022-09-03T06:21:03;95456.56;;;14.53;77.91
65800;BME280;52544;48.116;11.660;2022-09-03T06:23:29;95458.25;;;14.62;76.77
65800;BME280;52544;48.116;11.660;2022-09-03T06:26:11;95461.59;;;14.64;76.17
65800;BME280;52544;48.116;11.660;2022-09-03T06:28:41;95460.97;;;14.70;75.86
65800;BME280;52544;48.116;11.660;2022-09-03T06:31:12;95461.66;;;14.81;76.67
65800;BME280;52544;48.116;11.660;2022-09-03T06:33:39;95464.38;;;14.89;76.74
65800;BME280;52544;48.116;11.660;2022-09-03T06:36:08;95467.91;;;14.97;77.81
65800;BME280;52544;48.116;11.660;2022-09-03T06:38:35;95463.56;;;14.96;78.63
65800;BME280;52544;48.116;11.660;2022-09-03T06:41:03;95484.19;;;14.94;77.52
65800;BME280;52544;48.116;11.660;2022-09-03T06:43:31;95479.38;;;14.98;77.33
65800;BME280;52544;48.116;11.660;2022-09-03T06:46:11;95477.06;;;15.03;79.98
65800;BME280;52544;48.116;11.660;2022-09-03T06:48:38;95480.13;;;15.08;78.87
65800;BME280;52544;48.116;11.660;2022-09-03T06:51:09;95472.78;;;15.10;78.36
65800;BME280;52544;48.116;11.660;2022-09-03T06:53:39;95479.28;;;15.16;77.92
65800;BME280;52544;48.116;11.660;2022-09-03T06:56:10;95481.78;;;15.09;77.26
65800;BME280;52544;48.116;11.660;2022-09-03T06:58:38;95487.44;;;15.14;77.79
65800;BME280;52544;48.116;11.660;2022-09-03T07:01:12;95500.13;;;15.12;79.58
65800;BME280;52544;48.116;11.660;2022-09-03T07:03:40;95496.75;;;15.10;78.95
65800;BME280;52544;48.116;11.660;2022-09-03T07:06:10;95496.44;;;15.13;79.81
65800;BME280;52544;48.116;11.660;2022-09-03T07:08:36;95496.78;;;15.18;79.07
65800;BME280;52544;48.116;11.660;2022-09-03T07:11:05;95486.66;;;15.22;79.37
65800;BME280;52544;48.116;11.660;2022-09-03T07:13:34;95500.31;;;15.27;79.98
65800;BME280;52544;48.116;11.660;2022-09-03T07:16:04;95498.66;;;15.26;80.88
65800;BME280;52544;48.116;11.660;2022-09-03T07:18:31;95495.00;;;15.27;80.33
65800;BME280;52544;48.116;11.660;2022-09-03T07:21:00;95499.50;;;15.27;81.27
65800;BME280;52544;48.116;11.660;2022-09-03T07:23:28;95497.00;;;15.25;82.28
65800;BME280;52544;48.116;11.660;2022-09-03T07:25:58;95498.50;;;15.28;82.81
65800;BME280;52544;48.116;11.660;2022-09-03T07:28:25;95496.66;;;15.28;82.60
65800;BME280;52544;48.116;11.660;2022-09-03T07:30:51;95505.44;;;15.20;82.62
65800;BME280;52544;48.116;11.660;2022-09-03T07:33:17;95506.47;;;15.19;85.51
65800;BME280;52544;48.116;11.660;2022-09-03T07:35:44;95506.63;;;15.18;84.09
65800;BME280;52544;48.116;11.660;2022-09-03T07:38:10;95503.75;;;15.11;84.39
65800;BME280;52544;48.116;11.660;2022-09-03T07:40:36;95508.13;;;15.12;85.73
65800;BME280;52544;48.116;11.660;2022-09-03T07:43:04;95505.59;;;15.11;86.33
65800;BME280;52544;48.116;11.660;2022-09-03T07:45:30;95515.59;;;15.09;87.82
65800;BME280;52544;48.116;11.660;2022-09-03T07:47:56;95512.09;;;15.08;89.29
65800;BME280;52544;48.116;11.660;2022-09-03T07:50:22;95510.09;;;15.10;88.38
65800;BME280;52544;48.116;11.660;2022-09-03T07:52:47;95515.94;;;15.14;87.45
65800;BME280;52544;48.116;11.660;2022-09-03T07:55:13;95513.44;;;15.12;87.50
65800;BME280;52544;48.116;11.660;2022-09-03T07:57:38;95520.94;;;15.09;89.69
65800;BME280;52544;48.116;11.660;2022-09-03T08:00:05;95518.09;;;15.10;90.17
65800;BME280;52544;48.116;11.660;2022-09-03T08:02:33;95505.59;;;15.11;89.24
65800;BME280;52544;48.116;11.660;2022-09-03T08:04:58;95508.13;;;15.12;90.69
65800;BME280;52544;48.116;11.660;2022-09-03T08:07:24;95507.13;;;15.13;92.31
65800;BME280;52544;48.116;11.660;2022-09-03T08:09:50;95516.47;;;15.17;93.87
65800;BME280;52544;48.116;11.660;2022-09-03T08:12:15;95517.63;;;15.23;95.73
65800;BME280;52544;48.116;11.660;2022-09-03T08:14:40;95515.81;;;15.23;95.81
65800;BME280;52544;48.116;11.660;2022-09-03T08:17:06;95519.16;;;15.25;97.34
65800;BME280;52544;48.116;11.660;2022-09-03T08:19:32;95517.50;;;15.33;98.37
65800;BME280;52544;48.116;11.660;2022-09-03T08:21:59;95521.50;;;15.37;97.29
65800;BME280;52544;48.116;11.660;2022-09-03T08:24:24;95521.72;;;15.43;97.01
65800;BME280;52544;48.116;11.660;2022-09-03T08:26:50;95514.88;;;15.49;97.30
65800;BME280;52544;48.116;11.660;2022-09-03T08:29:16;95513.56;;;15.53;97.12
65800;BME280;52544;48.116;11.660;2022-09-03T08:31:42;95515.41;;;15.61;97.76
65800;BME280;52544;48.116;11.660;2022-09-03T08:34:08;95511.28;;;15.66;97.07
65800;BME280;52544;48.116;11.660;2022-09-03T08:36:37;95516.50;;;15.76;97.02
65800;BME280;52544;48.116;11.660;2022-09-03T08:39:07;95515.63;;;15.84;96.92
65800;BME280;52544;48.116;11.660;2022-09-03T08:44:38;95523.03;;;16.06;98.20
65800;BME280;52544;48.116;11.660;2022-09-03T08:50:21;95509.13;;;16.35;98.07
65800;BME280;52544;48.116;11.660;2022-09-03T08:52:52;95517.66;;;16.47;95.43
65800;BME280;52544;48.116;11.660;2022-09-03T08:55:34;95507.94;;;16.62;93.60
65800;BME280;52544;48.116;11.660;2022-09-03T08:58:06;95509.59;;;16.71;91.23
65800;BME280;52544;48.116;11.660;2022-09-03T09:03:58;95508.41;;;16.90;93.20
65800;BME280;52544;48.116;11.660;2022-09-03T09:06:47;95508.72;;;17.04;91.21
65800;BME280;52544;48.116;11.660;2022-09-03T09:09:34;95498.41;;;17.23;92.95
65800;BME280;52544;48.116;11.660;2022-09-03T09:17:48;95496.34;;;17.96;88.27
65800;BME280;52544;48.116;11.660;2022-09-03T09:20:48;95492.16;;;18.02;85.76
65800;BME280;52544;48.116;11.660;2022-09-03T09:23:21;95487.78;;;18.01;83.64
65800;BME280;52544;48.116;11.660;2022-09-03T09:25:50;95490.66;;;17.99;82.95
65800;BME280;52544;48.116;11.660;2022-09-03T09:28:18;95489.00;;;17.98;83.08
65800;BME280;52544;48.116;11.660;2022-09-03T09:30:46;95486.03;;;17.93;82.22
65800;BME280;52544;48.116;11.660;2022-09-03T09:33:14;95475.59;;;17.98;82.88
65800;BME280;52544;48.116;11.660;2022-09-03T09:35:41;95483.13;;;18.17;86.93
65800;BME280;52544;48.116;11.660;2022-09-03T09:38:07;95482.22;;;18.25;81.00
65800;BME280;52544;48.116;11.660;2022-09-03T09:40:35;95483.28;;;18.39;81.29
65800;BME280;52544;48.116;11.660;2022-09-03T09:43:08;95476.75;;;18.56;80.77
65800;BME280;52544;48.116;11.660;2022-09-03T09:45:39;95487.81;;;18.76;79.44
65800;BME280;52544;48.116;11.660;2022-09-03T09:48:21;95482.53;;;18.97;80.58
65800;BME280;52544;48.116;11.660;2022-09-03T09:50:47;95473.56;;;19.05;79.82
65800;BME280;52544;48.116;11.660;2022-09-03T09:53:12;95470.88;;;19.05;77.16
65800;BME280;52544;48.116;11.660;2022-09-03T09:55:55;95479.50;;;19.01;75.87
65800;BME280;52544;48.116;11.660;2022-09-03T09:58:25;95474.50;;;19.12;76.86
65800;BME280;52544;48.116;11.660;2022-09-03T10:03:33;95478.63;;;19.30;73.42
65800;BME280;52544;48.116;11.660;2022-09-03T10:06:08;95475.13;;;19.29;72.93
65800;BME280;52544;48.116;11.660;2022-09-03T10:09:04;95470.59;;;19.30;74.89
65800;BME280;52544;48.116;11.660;2022-09-03T10:11:31;95468.53;;;19.32;77.38
65800;BME280;52544;48.116;11.660;2022-09-03T10:13:58;95471.09;;;19.40;77.33
65800;BME280;52544;48.116;11.660;2022-09-03T10:16:33;95473.69;;;19.48;76.71
65800;BME280;52544;48.116;11.660;2022-09-03T10:20:32;95463.03;;;19.55;76.63
65800;BME280;52544;48.116;11.660;2022-09-03T10:22:46;95468.88;;;19.58;76.21
65800;BME280;52544;48.116;11.660;2022-09-03T10:25:14;95473.88;;;19.61;74.39
65800;BME280;52544;48.116;11.660;2022-09-03T10:27:41;95476.63;;;19.68;72.25
65800;BME280;52544;48.116;11.660;2022-09-03T10:30:10;95474.41;;;19.71;73.66
65800;BME280;52544;48.116;11.660;2022-09-03T10:35:39;95473.88;;;19.83;72.37
65800;BME280;52544;48.116;11.660;2022-09-03T10:38:23;95484.63;;;19.83;72.41
65800;BME280;52544;48.116;11.660;2022-09-03T10:46:21;95477.84;;;19.87;71.59
65800;BME280;52544;48.116;11.660;2022-09-03T10:49:03;95472.63;;;20.00;71.43
65800;BME280;52544;48.116;11.660;2022-09-03T10:51:40;95464.50;;;20.15;68.70
65800;BME280;52544;48.116;11.660;2022-09-03T10:54:21;95459.47;;;20.33;68.20
65800;BME280;52544;48.116;11.660;2022-09-03T10:57:02;95452.75;;;20.44;67.62
65800;BME280;52544;48.116;11.660;2022-09-03T10:59:38;95454.84;;;20.70;67.15
65800;BME280;52544;48.116;11.660;2022-09-03T11:02:21;95447.59;;;21.05;65.11
65800;BME280;52544;48.116;11.660;2022-09-03T11:07:39;95442.38;;;21.38;61.40
65800;BME280;52544;48.116;11.660;2022-09-03T11:10:14;95449.03;;;21.42;63.13
65800;BME280;52544;48.116;11.660;2022-09-03T11:12:49;95437.06;;;21.58;62.69
65800;BME280;52544;48.116;11.660;2022-09-03T11:15:25;95437.97;;;21.85;60.64
65800;BME280;52544;48.116;11.660;2022-09-03T11:20:28;95439.25;;;22.09;63.01
65800;BME280;52544;48.116;11.660;2022-09-03T11:22:57;95433.63;;;22.04;59.23
65800;BME280;52544;48.116;11.660;2022-09-03T11:25:31;95429.25;;;21.90;58.12
65800;BME280;52544;48.116;11.660;2022-09-03T11:30:48;95426.94;;;21.74;58.63
65800;BME280;52544;48.116;11.660;2022-09-03T11:33:20;95422.22;;;22.09;59.13
65800;BME280;52544;48.116;11.660;2022-09-03T11:35:55;95416.81;;;22.09;57.42
65800;BME280;52544;48.116;11.660;2022-09-03T11:38:21;95417.72;;;22.23;60.35
65800;BME280;52544;48.116;11.660;2022-09-03T11:45:48;95420.00;;;22.39;58.87
65800;BME280;52544;48.116;11.660;2022-09-03T11:48:36;95419.56;;;22.29;59.88
65800;BME280;52544;48.116;11.660;2022-09-03T11:51:02;95418.13;;;22.33;62.02
65800;BME280;52544;48.116;11.660;2022-09-03T11:53:35;95412.53;;;22.41;61.48
65800;BME280;52544;48.116;11.660;2022-09-03T11:56:17;95414.38;;;22.34;60.04
65800;BME280;52544;48.116;11.660;2022-09-03T11:58:42;95408.16;;;22.20;57.67
65800;BME280;52544;48.116;11.660;2022-09-03T12:01:11;95413.50;;;22.00;59.22
65800;BME280;52544;48.116;11.660;2022-09-03T12:03:52;95411.91;;;22.12;59.31
65800;BME280;52544;48.116;11.660;2022-09-03T12:07:00;95403.19;;;22.37;60.23
65800;BME280;52544;48.116;11.660;2022-09-03T12:09:47;95398.38;;;22.65;57.10
65800;BME280;52544;48.116;11.660;2022-09-03T12:15:13;95395.66;;;22.99;58.29
65800;BME280;52544;48.116;11.660;2022-09-03T12:17:52;95400.59;;;23.08;56.33
65800;BME280;52544;48.116;11.660;2022-09-03T12:20:41;95393.00;;;23.37;54.84
65800;BME280;52544;48.116;11.660;2022-09-03T12:23:10;95398.69;;;23.67;55.38
65800;BME280;52544;48.116;11.660;2022-09-03T12:25:42;95384.47;;;23.78;55.67
65800;BME280;52544;48.116;11.660;2022-09-03T12:28:16;95394.75;;;23.94;51.34
65800;BME280;52544;48.116;11.660;2022-09-03T12:30:43;95388.84;;;24.04;50.29
65800;BME280;52544;48.116;11.660;2022-09-03T12:33:12;95392.97;;;24.13;52.29
65800;BME280;52544;48.116;11.660;2022-09-03T12:35:38;95386.94;;;24.11;53.21
65800;BME280;52544;48.116;11.660;2022-09-03T12:38:03;95381.31;;;24.13;52.70
65800;BME280;52544;48.116;11.660;2022-09-03T12:40:29;95385.50;;;24.34;49.22
65800;BME280;52544;48.116;11.660;2022-09-03T12:42:55;95379.84;;;24.42;46.84
65800;BME280;52544;48.116;11.660;2022-09-03T12:45:45;95373.31;;;24.50;47.21
65800;BME280;52544;48.116;11.660;2022-09-03T12:48:18;95360.47;;;24.63;45.40
65800;BME280;52544;48.116;11.660;2022-09-03T12:50:45;95372.69;;;24.73;49.00
65800;BME280;52544;48.116;11.660;2022-09-03T12:53:17;95366.50;;;24.84;48.22
65800;BME280;52544;48.116;11.660;2022-09-03T12:55:52;95370.28;;;24.83;48.52
65800;BME280;52544;48.116;11.660;2022-09-03T12:58:56;95369.91;;;24.79;45.33
65800;BME280;52544;48.116;11.660;2022-09-03T13:01:29;95367.44;;;24.78;45.16
65800;BME280;52544;48.116;11.660;2022-09-03T13:04:27;95353.66;;;24.79;45.82
65800;BME280;52544;48.116;11.660;2022-09-03T13:06:59;95351.34;;;24.83;46.82
65800;BME280;52544;48.116;11.660;2022-09-03T13:09:29;95344.66;;;25.04;46.06
65800;BME280;52544;48.116;11.660;2022-09-03T13:11:55;95346.69;;;25.08;46.53
65800;BME280;52544;48.116;11.660;2022-09-03T13:14:25;95345.47;;;25.23;47.46
65800;BME280;52544;48.116;11.660;2022-09-03T13:17:06;95338.03;;;25.36;44.36
65800;BME280;52544;48.116;11.660;2022-09-03T13:20:34;95344.34;;;25.30;46.36
65800;BME280;52544;48.116;11.660;2022-09-03T13:28:29;95345.97;;;25.31;46.10
65800;BME280;52544;48.116;11.660;2022-09-03T13:33:31;95365.38;;;25.77;46.14
65800;BME280;52544;48.116;11.660;2022-09-03T13:36:02;95360.25;;;25.68;45.37
65800;BME280;52544;48.116;11.660;2022-09-03T13:39:01;95364.22;;;25.54;45.36
65800;BME280;52544;48.116;11.660;2022-09-03T13:44:05;95360.50;;;25.18;47.84
65800;BME280;52544;48.116;11.660;2022-09-03T13:46:51;95355.34;;;24.99;48.31
65800;BME280;52544;48.116;11.660;2022-09-03T13:55:21;95361.63;;;23.74;53.67
65800;BME280;52544;48.116;11.660;2022-09-03T14:00:43;95357.13;;;23.23;53.03
65800;BME280;52544;48.116;11.660;2022-09-03T14:03:30;95370.69;;;23.10;56.72
65800;BME280;52544;48.116;11.660;2022-09-03T14:09:20;95379.06;;;22.82;58.13
65800;BME280;52544;48.116;11.660;2022-09-03T14:20:04;95391.56;;;22.30;61.19
65800;BME280;52544;48.116;11.660;2022-09-03T14:22:58;95386.00;;;22.18;62.77
65800;BME280;52544;48.116;11.660;2022-09-03T14:25:28;95381.81;;;22.02;61.03
65800;BME280;52544;48.116;11.660;2022-09-03T14:27:55;95391.75;;;21.95;62.69
65800;BME280;52544;48.116;11.660;2022-09-03T14:30:50;95399.41;;;21.85;62.89
65800;BME280;52544;48.116;11.660;2022-09-03T14:36:01;95427.97;;;21.66;62.59
65800;BME280;52544;48.116;11.660;2022-09-03T14:43:46;95527.44;;;20.06;74.92
65800;BME280;52544;48.116;11.660;2022-09-03T14:52:27;95514.56;;;17.78;96.85
65800;BME280;52544;48.116;11.660;2022-09-03T14:55:28;95523.22;;;17.48;100.00
65800;BME280;52544;48.116;11.660;2022-09-03T15:06:06;95569.72;;;16.92;100.00
65800;BME280;52544;48.116;11.660;2022-09-03T15:11:29;95579.06;;;16.63;100.00
65800;BME280;52544;48.116;11.660;2022-09-03T15:16:58;95551.69;;;16.69;100.00
65800;BME280;52544;48.116;11.660;2022-09-03T15:22:58;95562.72;;;16.50;100.00
65800;BME280;52544;48.116;11.660;2022-09-03T15:28:24;95556.69;;;16.56;100.00
65800;BME280;52544;48.116;11.660;2022-09-03T15:33:36;95552.69;;;16.60;100.00
65800;BME280;52544;48.116;11.660;2022-09-03T15:38:36;95575.06;;;16.43;100.00
65800;BME280;52544;48.116;11.660;2022-09-03T15:44:07;95560.88;;;16.26;100.00
65800;BME280;52544;48.116;11.660;2022-09-03T15:46:44;95561.06;;;16.16;100.00
65800;BME280;52544;48.116;11.660;2022-09-03T15:55:04;95558.06;;;16.11;100.00